Aviation Digital Data Service (ADDS)

Output produced by METARs form (1425 UTC 07 December 2016)
found at http://www.aviationweather.gov/adds/metars/
 
KESN 071350Z 02005KT 10SM FEW035 BKN120 07/05 A3004